Time;durP1;ratioP1;P1;durP2;ratioP2;P2;SDS_P1;SDS_P2;PMS_P1;PMS_P2;Temp;Humidity;BMP_temperature;BMP_pressure;BME280_temperature;BME280_humidity;BME280_pressure;Samples;Min_cycle;Max_cycle;Signal;HPM_P1;HPM_P2
2024/02/27 00:00:26;;;;;;;25.85;11.52;;;;;;;;;;5051003;28;20045;-55
2024/02/27 00:02:51;;;;;;;23.43;10.90;;;;;;;;;;5052362;28;20100;-56
2024/02/27 00:05:17;;;;;;;21.17;10.10;;;;;;;;;;5052028;28;20029;-58
2024/02/27 00:07:42;;;;;;;25.00;12.17;;;;;;;;;;5051733;28;20259;-55
2024/02/27 00:10:10;;;;;;;25.23;11.87;;;;;;;;;;5052980;28;20045;-58
2024/02/27 00:12:36;;;;;;;21.70;10.25;;;;;;;;;;5051269;28;20254;-59
2024/02/27 00:15:03;;;;;;;23.73;10.57;;;;;;;;;;5052132;28;20029;-58
2024/02/27 00:17:29;;;;;;;23.48;11.27;;;;;;;;;;5050845;28;20097;-56
2024/02/27 00:19:54;;;;;;;28.13;11.20;;;;;;;;;;5050817;28;20033;-54
2024/02/27 00:22:20;;;;;;;24.57;11.47;;;;;;;;;;5051298;28;20281;-56
2024/02/27 00:24:45;;;;;;;29.77;12.23;;;;;;;;;;5051561;28;20101;-57
2024/02/27 00:27:11;;;;;;;22.87;10.40;;;;;;;;;;5050299;28;20045;-58
2024/02/27 00:29:36;;;;;;;24.33;11.85;;;;;;;;;;5050499;28;21057;-55
2024/02/27 00:32:02;;;;;;;21.98;9.85;;;;;;;;;;5050932;28;20033;-57
2024/02/27 00:34:27;;;;;;;23.43;11.50;;;;;;;;;;5051992;28;20040;-58
2024/02/27 00:36:53;;;;;;;21.80;8.97;;;;;;;;;;5052457;28;20299;-56
2024/02/27 00:39:18;;;;;;;23.20;11.10;;;;;;;;;;5052262;28;20033;-57
2024/02/27 00:41:48;;;;;;;27.02;11.95;;;;;;;;;;5051249;28;20040;-57
2024/02/27 00:44:14;;;;;;;17.85;8.50;;;;;;;;;;5051361;28;20097;-58
2024/02/27 00:46:42;;;;;;;28.15;11.70;;;;;;;;;;5051664;28;20048;-58
2024/02/27 00:49:08;;;;;;;23.75;11.40;;;;;;;;;;5050509;28;20040;-56
2024/02/27 00:51:34;;;;;;;25.70;10.88;;;;;;;;;;5052576;28;20037;-58
2024/02/27 00:53:59;;;;;;;21.87;9.83;;;;;;;;;;5054639;28;20140;-57
2024/02/27 00:56:25;;;;;;;22.15;10.60;;;;;;;;;;5053778;28;20505;-59
2024/02/27 00:58:50;;;;;;;23.33;10.20;;;;;;;;;;5053416;28;20044;-55
2024/02/27 01:01:17;;;;;;;26.08;11.65;;;;;;;;;;5056196;28;20041;-56
2024/02/27 01:03:43;;;;;;;24.05;10.70;;;;;;;;;;5054652;28;20037;-57
2024/02/27 01:06:08;;;;;;;21.93;10.33;;;;;;;;;;5053811;28;20034;-56
2024/02/27 01:08:34;;;;;;;26.97;11.83;;;;;;;;;;5053908;28;20267;-56
2024/02/27 01:10:59;;;;;;;25.87;10.97;;;;;;;;;;5053921;28;20026;-56
2024/02/27 01:13:25;;;;;;;22.92;11.73;;;;;;;;;;5053959;28;20040;-57
2024/02/27 01:15:50;;;;;;;23.70;11.30;;;;;;;;;;5052945;28;20037;-58
2024/02/27 01:18:16;;;;;;;24.50;10.73;;;;;;;;;;5052429;28;20306;-56
2024/02/27 01:20:41;;;;;;;22.77;10.27;;;;;;;;;;5053807;28;20048;-57
2024/02/27 01:23:07;;;;;;;22.63;10.57;;;;;;;;;;5053534;28;20267;-56
2024/02/27 01:25:32;;;;;;;15.43;7.65;;;;;;;;;;5054565;28;20056;-57
2024/02/27 01:27:58;;;;;;;22.53;9.90;;;;;;;;;;5054595;28;20043;-58
2024/02/27 01:30:23;;;;;;;27.95;10.35;;;;;;;;;;5057063;28;20044;-56
2024/02/27 01:32:49;;;;;;;26.92;10.82;;;;;;;;;;5054950;28;20056;-56
2024/02/27 01:35:18;;;;;;;20.93;10.20;;;;;;;;;;5053534;28;20037;-56
2024/02/27 01:37:44;;;;;;;25.65;11.10;;;;;;;;;;5054938;28;20265;-53
2024/02/27 01:40:10;;;;;;;22.85;10.13;;;;;;;;;;5053944;28;20030;-56
2024/02/27 01:42:37;;;;;;;18.83;8.85;;;;;;;;;;5053807;28;20093;-56
2024/02/27 01:45:02;;;;;;;23.02;10.45;;;;;;;;;;5054185;28;20053;-54
2024/02/27 01:47:28;;;;;;;28.83;11.25;;;;;;;;;;5054806;28;20029;-55
2024/02/27 01:49:54;;;;;;;23.42;11.35;;;;;;;;;;5055011;28;20064;-55
2024/02/27 01:52:20;;;;;;;17.85;8.23;;;;;;;;;;5054679;28;20025;-56
2024/02/27 01:54:46;;;;;;;20.27;9.75;;;;;;;;;;5055215;28;20084;-56
2024/02/27 01:57:13;;;;;;;19.27;9.68;;;;;;;;;;5054076;28;20033;-56
2024/02/27 01:59:38;;;;;;;;;;;;;;;;;;5053976;28;20037;-58
2024/02/27 02:02:03;;;;;;;25.80;10.83;;;;;;;;;;5052198;28;19909;-56
2024/02/27 02:04:30;;;;;;;21.00;8.73;;;;;;;;;;5052062;28;20030;-55
2024/02/27 02:06:56;;;;;;;23.52;11.60;;;;;;;;;;5053007;28;20267;-57
2024/02/27 02:09:21;;;;;;;20.27;9.27;;;;;;;;;;5050681;28;20041;-55
2024/02/27 02:11:47;;;;;;;14.43;8.15;;;;;;;;;;5051459;28;20041;-56
2024/02/27 02:14:12;;;;;;;20.13;8.83;;;;;;;;;;5051093;28;20060;-55
2024/02/27 02:16:38;;;;;;;17.25;8.13;;;;;;;;;;5051145;28;20022;-58
2024/02/27 02:19:03;;;;;;;17.03;8.57;;;;;;;;;;5053286;28;20048;-57
2024/02/27 02:21:29;;;;;;;27.73;10.52;;;;;;;;;;5053452;28;20114;-58
2024/02/27 02:23:56;;;;;;;21.37;10.23;;;;;;;;;;5051974;28;20040;-55
2024/02/27 02:26:22;;;;;;;20.77;10.05;;;;;;;;;;5053179;28;20035;-58
2024/02/27 02:28:47;;;;;;;21.10;9.50;;;;;;;;;;5050345;28;20026;-57
2024/02/27 02:31:13;;;;;;;17.83;7.93;;;;;;;;;;5051388;28;20048;-57
2024/02/27 02:33:40;;;;;;;20.83;10.57;;;;;;;;;;5051231;28;20033;-57
2024/02/27 02:36:06;;;;;;;25.15;10.38;;;;;;;;;;5067080;28;20025;-57
2024/02/27 02:38:32;;;;;;;21.83;9.40;;;;;;;;;;5049598;28;20044;-58
2024/02/27 02:40:58;;;;;;;24.20;9.68;;;;;;;;;;5050875;28;20038;-56
2024/02/27 02:43:23;;;;;;;21.10;9.80;;;;;;;;;;5051324;28;20044;-57
2024/02/27 02:45:48;;;;;;;21.27;9.43;;;;;;;;;;5052691;28;20049;-56
2024/02/27 02:48:14;;;;;;;19.05;9.07;;;;;;;;;;5051880;28;20053;-56
2024/02/27 02:50:40;;;;;;;17.30;7.67;;;;;;;;;;5050864;28;20025;-59
2024/02/27 02:53:05;;;;;;;22.83;9.87;;;;;;;;;;5050733;28;20274;-57
2024/02/27 02:55:31;;;;;;;18.67;9.18;;;;;;;;;;5051931;28;20087;-56
2024/02/27 02:57:56;;;;;;;21.52;10.30;;;;;;;;;;5048534;28;20049;-56
2024/02/27 03:00:22;;;;;;;19.17;9.23;;;;;;;;;;5051178;28;20119;-57
2024/02/27 03:02:47;;;;;;;18.67;8.57;;;;;;;;;;5052033;28;20040;-58
2024/02/27 03:05:13;;;;;;;19.23;8.47;;;;;;;;;;5050719;28;20076;-57
2024/02/27 03:07:39;;;;;;;25.77;9.90;;;;;;;;;;5050111;28;20282;-57
2024/02/27 03:10:05;;;;;;;20.45;8.45;;;;;;;;;;5050452;28;20129;-58
2024/02/27 03:12:31;;;;;;;22.85;9.95;;;;;;;;;;5049832;28;20479;-57
2024/02/27 03:14:57;;;;;;;;;;;;;;;;;;5052814;28;20025;-56
2024/02/27 03:17:23;;;;;;;16.70;8.17;;;;;;;;;;5050758;28;19912;-56
2024/02/27 03:19:48;;;;;;;21.92;9.75;;;;;;;;;;5051664;28;20029;-57
2024/02/27 03:22:13;;;;;;;20.37;9.53;;;;;;;;;;5052071;28;20038;-57
2024/02/27 03:24:39;;;;;;;23.30;9.32;;;;;;;;;;5051930;28;20081;-58
2024/02/27 03:27:05;;;;;;;16.03;7.17;;;;;;;;;;5049941;28;20052;-53
2024/02/27 03:29:30;;;;;;;19.88;7.82;;;;;;;;;;5052036;28;20036;-55
2024/02/27 03:31:57;;;;;;;21.13;10.10;;;;;;;;;;5053205;28;20034;-58
2024/02/27 03:34:24;;;;;;;18.87;7.80;;;;;;;;;;5050573;28;20064;-58
2024/02/27 03:36:49;;;;;;;19.80;8.90;;;;;;;;;;5051443;28;20033;-57
2024/02/27 03:39:14;;;;;;;23.30;9.30;;;;;;;;;;5051946;28;20033;-56
2024/02/27 03:41:40;;;;;;;16.23;7.53;;;;;;;;;;5050275;28;20053;-56
2024/02/27 03:44:05;;;;;;;30.03;10.17;;;;;;;;;;5048247;28;20044;-57
2024/02/27 03:46:31;;;;;;;23.93;10.53;;;;;;;;;;5051668;28;20034;-56
2024/02/27 03:48:56;;;;;;;26.83;10.23;;;;;;;;;;5047998;28;20029;-57
2024/02/27 03:51:22;;;;;;;22.73;11.00;;;;;;;;;;5048219;28;20068;-56
2024/02/27 03:53:47;;;;;;;27.70;10.73;;;;;;;;;;5050771;28;20270;-56
2024/02/27 03:56:13;;;;;;;20.23;9.65;;;;;;;;;;5048689;28;20029;-56
2024/02/27 03:58:38;;;;;;;26.47;11.33;;;;;;;;;;5049920;28;20035;-55
2024/02/27 04:01:04;;;;;;;26.57;10.60;;;;;;;;;;5050796;28;20255;-56
2024/02/27 04:03:29;;;;;;;26.57;12.27;;;;;;;;;;5050732;28;20053;-52
2024/02/27 04:05:55;;;;;;;23.02;11.02;;;;;;;;;;5052424;28;20029;-57
2024/02/27 04:08:20;;;;;;;18.75;9.23;;;;;;;;;;5051185;28;20041;-55
2024/02/27 04:10:46;;;;;;;28.23;10.73;;;;;;;;;;5054645;28;20061;-57
2024/02/27 04:13:11;;;;;;;27.03;11.03;;;;;;;;;;5051726;28;20270;-52
2024/02/27 04:15:37;;;;;;;26.65;11.10;;;;;;;;;;5049357;28;20026;-55
2024/02/27 04:18:03;;;;;;;29.23;11.33;;;;;;;;;;5047698;28;20068;-55
2024/02/27 04:20:29;;;;;;;30.67;12.07;;;;;;;;;;5049628;28;20254;-58
2024/02/27 04:22:54;;;;;;;28.97;12.37;;;;;;;;;;5048367;28;20059;-57
2024/02/27 04:25:20;;;;;;;35.97;13.27;;;;;;;;;;5046491;28;20266;-58
2024/02/27 04:27:45;;;;;;;25.07;11.53;;;;;;;;;;5047838;28;20361;-58
2024/02/27 04:30:11;;;;;;;24.87;11.43;;;;;;;;;;5048644;28;20030;-56
2024/02/27 04:32:36;;;;;;;28.42;11.60;;;;;;;;;;5049584;28;20056;-58
2024/02/27 04:35:02;;;;;;;31.83;13.37;;;;;;;;;;5049220;28;20047;-53
2024/02/27 04:37:27;;;;;;;45.75;13.50;;;;;;;;;;5048410;28;20029;-53
2024/02/27 04:39:54;;;;;;;30.50;12.67;;;;;;;;;;5050155;28;20102;-56
2024/02/27 04:42:19;;;;;;;26.17;11.38;;;;;;;;;;5049185;28;20037;-57
2024/02/27 04:44:44;;;;;;;26.73;11.33;;;;;;;;;;5050564;28;20044;-59
2024/02/27 04:47:10;;;;;;;22.60;10.17;;;;;;;;;;5049856;28;20022;-58
2024/02/27 04:49:35;;;;;;;29.33;11.63;;;;;;;;;;5048599;28;20067;-57
2024/02/27 04:52:01;;;;;;;27.42;12.13;;;;;;;;;;5049885;28;20068;-56
2024/02/27 04:54:27;;;;;;;64.72;12.25;;;;;;;;;;5049742;28;20029;-57
2024/02/27 04:56:52;;;;;;;25.27;12.30;;;;;;;;;;5049102;28;20033;-59
2024/02/27 04:59:18;;;;;;;33.83;12.57;;;;;;;;;;5049289;28;20053;-55
2024/02/27 05:01:47;;;;;;;32.95;12.10;;;;;;;;;;5049570;28;20271;-54
2024/02/27 05:04:12;;;;;;;31.70;12.32;;;;;;;;;;5049242;28;20033;-56
2024/02/27 05:06:39;;;;;;;33.28;12.43;;;;;;;;;;5050166;28;20036;-59
2024/02/27 05:09:05;;;;;;;32.10;13.40;;;;;;;;;;5048831;28;20033;-56
2024/02/27 05:11:30;;;;;;;25.00;10.63;;;;;;;;;;5050646;28;20053;-56
2024/02/27 05:13:56;;;;;;;24.77;9.55;;;;;;;;;;5051462;28;20029;-53
2024/02/27 05:16:21;;;;;;;19.37;8.30;;;;;;;;;;5050491;28;20049;-56
2024/02/27 05:18:47;;;;;;;24.00;11.73;;;;;;;;;;5051862;28;20298;-56
2024/02/27 05:21:12;;;;;;;37.67;13.47;;;;;;;;;;5049158;28;20270;-56
2024/02/27 05:23:37;;;;;;;29.63;12.47;;;;;;;;;;5049986;28;20032;-58
2024/02/27 05:26:04;;;;;;;31.83;13.25;;;;;;;;;;5048554;28;20079;-58
2024/02/27 05:28:29;;;;;;;33.72;13.85;;;;;;;;;;5048009;28;20048;-59
2024/02/27 05:30:55;;;;;;;31.23;11.02;;;;;;;;;;5048908;28;20037;-57
2024/02/27 05:33:21;;;;;;;22.75;9.07;;;;;;;;;;5049062;28;20029;-57
2024/02/27 05:35:47;;;;;;;32.73;12.70;;;;;;;;;;5047749;28;20037;-59
2024/02/27 05:38:12;;;;;;;31.60;11.63;;;;;;;;;;5054010;28;20094;-57
2024/02/27 05:40:38;;;;;;;29.00;11.60;;;;;;;;;;5055345;28;20055;-56
2024/02/27 05:43:03;;;;;;;29.92;12.70;;;;;;;;;;5057557;28;20030;-58
2024/02/27 05:45:29;;;;;;;30.57;11.97;;;;;;;;;;5054832;28;20033;-58
2024/02/27 05:47:54;;;;;;;36.63;13.70;;;;;;;;;;5052928;28;20756;-59
2024/02/27 05:50:20;;;;;;;28.20;11.55;;;;;;;;;;5053629;28;20037;-57
2024/02/27 05:52:46;;;;;;;29.00;12.02;;;;;;;;;;5051990;28;20113;-59
2024/02/27 05:55:12;;;;;;;31.67;13.05;;;;;;;;;;5053065;28;20132;-58
2024/02/27 05:57:37;;;;;;;32.17;13.23;;;;;;;;;;5052145;28;20082;-57
2024/02/27 06:00:03;;;;;;;38.47;13.20;;;;;;;;;;5052239;28;20029;-57
2024/02/27 06:02:30;;;;;;;29.88;11.70;;;;;;;;;;5051736;28;20282;-54
2024/02/27 06:04:56;;;;;;;34.75;12.07;;;;;;;;;;5053897;28;20029;-58
2024/02/27 06:07:21;;;;;;;28.63;12.07;;;;;;;;;;5052461;28;20029;-57
2024/02/27 06:09:47;;;;;;;30.00;12.47;;;;;;;;;;5051965;28;20029;-56
2024/02/27 06:12:12;;;;;;;29.88;11.90;;;;;;;;;;5052246;28;20056;-57
2024/02/27 06:14:39;;;;;;;32.22;12.30;;;;;;;;;;5051375;28;20057;-54
2024/02/27 06:17:04;;;;;;;26.25;10.52;;;;;;;;;;5051544;28;20041;-56
2024/02/27 06:19:30;;;;;;;25.60;11.63;;;;;;;;;;5052343;28;20121;-57
2024/02/27 06:22:11;;;;;;;32.15;13.20;;;;;;;;;;5051525;28;20104;-55
2024/02/27 06:24:38;;;;;;;32.08;12.50;;;;;;;;;;5051539;28;20033;-59
2024/02/27 06:27:03;;;;;;;;;;;;;;;;;;5051559;28;20104;-56
2024/02/27 06:29:29;;;;;;;27.37;12.00;;;;;;;;;;5053296;28;19909;-58
2024/02/27 06:31:54;;;;;;;30.85;13.13;;;;;;;;;;5051995;28;20040;-51
2024/02/27 06:34:20;;;;;;;28.40;12.73;;;;;;;;;;5053634;28;20029;-57
2024/02/27 06:36:47;;;;;;;31.43;13.23;;;;;;;;;;5049916;28;20293;-56
2024/02/27 06:39:12;;;;;;;32.88;13.60;;;;;;;;;;5052406;28;20274;-59
2024/02/27 06:41:37;;;;;;;32.57;12.67;;;;;;;;;;5050638;28;20068;-58
2024/02/27 06:44:04;;;;;;;31.73;12.63;;;;;;;;;;5051619;28;20051;-58
2024/02/27 06:46:29;;;;;;;31.30;12.10;;;;;;;;;;5051431;28;20040;-55
2024/02/27 06:48:55;;;;;;;33.47;12.40;;;;;;;;;;5051176;28;20088;-56
2024/02/27 06:51:22;;;;;;;40.67;14.50;;;;;;;;;;5051173;28;20038;-53
2024/02/27 06:53:47;;;;;;;31.90;14.43;;;;;;;;;;5051745;28;20033;-58
2024/02/27 06:56:12;;;;;;;24.77;11.85;;;;;;;;;;5052038;28;20105;-57
2024/02/27 06:58:38;;;;;;;36.07;13.50;;;;;;;;;;5052124;28;20037;-57
2024/02/27 07:01:03;;;;;;;35.42;13.13;;;;;;;;;;5050126;28;20077;-58
2024/02/27 07:03:29;;;;;;;27.50;13.50;;;;;;;;;;5049877;28;20038;-56
2024/02/27 07:05:54;;;;;;;35.37;14.80;;;;;;;;;;5045218;28;20514;-57
2024/02/27 07:08:20;;;;;;;32.50;13.38;;;;;;;;;;5047295;28;20478;-58
2024/02/27 07:10:45;;;;;;;35.03;14.23;;;;;;;;;;5053070;28;20056;-59
2024/02/27 07:13:12;;;;;;;27.83;12.00;;;;;;;;;;5053246;28;20290;-56
2024/02/27 07:15:38;;;;;;;32.13;13.00;;;;;;;;;;5053026;28;20032;-58
2024/02/27 07:18:03;;;;;;;34.60;14.25;;;;;;;;;;5052787;28;20327;-53
2024/02/27 07:20:31;;;;;;;33.15;12.63;;;;;;;;;;5049908;28;20102;-53
2024/02/27 07:22:57;;;;;;;27.38;11.25;;;;;;;;;;5051634;28;20093;-58
2024/02/27 07:25:23;;;;;;;29.58;13.18;;;;;;;;;;5050315;28;20089;-58
2024/02/27 07:27:48;;;;;;;31.57;14.97;;;;;;;;;;5050810;28;20037;-57
2024/02/27 07:30:15;;;;;;;34.33;13.73;;;;;;;;;;5051767;28;20338;-58
2024/02/27 07:32:41;;;;;;;27.92;10.77;;;;;;;;;;5051283;28;20037;-58
2024/02/27 07:35:07;;;;;;;25.63;10.88;;;;;;;;;;5052290;28;20033;-53
2024/02/27 07:37:33;;;;;;;;;;;;;;;;;;5050660;28;20029;-58
2024/02/27 07:39:58;;;;;;;26.87;10.70;;;;;;;;;;5049562;28;19913;-57
2024/02/27 07:42:23;;;;;;;27.55;11.27;;;;;;;;;;5049824;28;20061;-58
2024/02/27 07:44:49;;;;;;;33.22;12.98;;;;;;;;;;5051122;28;20060;-55
2024/02/27 07:47:16;;;;;;;33.38;13.43;;;;;;;;;;5050925;28;20029;-56
2024/02/27 07:49:45;;;;;;;31.08;12.55;;;;;;;;;;5050946;28;20093;-58
2024/02/27 07:52:11;;;;;;;24.90;9.38;;;;;;;;;;5049142;28;20065;-56
2024/02/27 07:54:36;;;;;;;26.93;10.73;;;;;;;;;;5051212;28;20040;-59
2024/02/27 07:57:02;;;;;;;30.67;12.98;;;;;;;;;;5050155;28;20036;-58
2024/02/27 07:59:27;;;;;;;29.98;11.57;;;;;;;;;;5051335;28;20037;-58
2024/02/27 08:01:53;;;;;;;30.60;11.40;;;;;;;;;;5050886;28;20038;-58
2024/02/27 08:04:19;;;;;;;20.80;8.80;;;;;;;;;;5051418;28;20266;-60
2024/02/27 08:06:44;;;;;;;23.93;10.10;;;;;;;;;;5051546;28;20045;-58
2024/02/27 08:09:10;;;;;;;26.90;10.50;;;;;;;;;;5049961;28;20270;-60
2024/02/27 08:11:35;;;;;;;18.70;7.88;;;;;;;;;;5050433;28;20040;-57
2024/02/27 08:14:02;;;;;;;24.53;9.50;;;;;;;;;;5051666;28;20052;-57
2024/02/27 08:16:28;;;;;;;22.77;10.23;;;;;;;;;;5048453;28;20029;-58
2024/02/27 08:18:54;;;;;;;26.77;11.63;;;;;;;;;;5050155;28;20037;-52
2024/02/27 08:21:20;;;;;;;24.90;11.18;;;;;;;;;;5050342;28;20048;-58
2024/02/27 08:23:45;;;;;;;24.50;9.03;;;;;;;;;;5049931;28;20163;-56
2024/02/27 08:26:10;;;;;;;18.23;8.73;;;;;;;;;;5049947;28;20033;-58
2024/02/27 08:28:36;;;;;;;24.52;10.55;;;;;;;;;;5048126;28;20029;-57
2024/02/27 08:31:03;;;;;;;23.10;11.23;;;;;;;;;;5049922;28;20029;-61
2024/02/27 08:33:29;;;;;;;25.65;11.15;;;;;;;;;;5050700;28;20282;-57
2024/02/27 08:35:55;;;;;;;18.05;8.20;;;;;;;;;;5048940;28;20042;-57
2024/02/27 08:38:21;;;;;;;24.77;10.17;;;;;;;;;;5050636;28;20049;-57
2024/02/27 08:40:47;;;;;;;23.48;9.85;;;;;;;;;;5050698;28;20030;-56
2024/02/27 08:43:14;;;;;;;14.93;5.87;;;;;;;;;;5050925;28;20049;-58
2024/02/27 08:45:42;;;;;;;19.20;9.00;;;;;;;;;;5050492;28;20262;-59
2024/02/27 08:48:07;;;;;;;19.10;7.97;;;;;;;;;;5049099;28;20361;-55
2024/02/27 08:50:34;;;;;;;17.67;8.38;;;;;;;;;;5050154;28;20263;-59
2024/02/27 08:52:59;;;;;;;17.17;7.63;;;;;;;;;;5049928;28;20050;-57
2024/02/27 08:55:25;;;;;;;14.52;6.93;;;;;;;;;;5049616;28;20037;-56
2024/02/27 08:57:51;;;;;;;19.13;9.75;;;;;;;;;;5050022;28;20037;-58
2024/02/27 09:00:17;;;;;;;18.00;7.85;;;;;;;;;;5050826;28;20057;-57
2024/02/27 09:02:43;;;;;;;12.35;6.35;;;;;;;;;;5050880;28;20030;-59
2024/02/27 09:05:08;;;;;;;14.38;7.05;;;;;;;;;;5050290;28;20033;-59
2024/02/27 09:07:39;;;;;;;17.88;9.32;;;;;;;;;;5050143;28;20029;-56
2024/02/27 09:10:05;;;;;;;11.63;6.93;;;;;;;;;;5049916;28;20033;-57
2024/02/27 09:12:30;;;;;;;9.00;5.38;;;;;;;;;;5052277;28;20262;-56
2024/02/27 09:14:56;;;;;;;14.40;7.28;;;;;;;;;;5056948;28;20069;-56
2024/02/27 09:17:21;;;;;;;15.83;8.63;;;;;;;;;;5054130;28;20029;-60
2024/02/27 09:19:47;;;;;;;14.05;8.00;;;;;;;;;;5054267;28;20295;-57
2024/02/27 09:22:12;;;;;;;13.93;7.43;;;;;;;;;;5053641;28;20034;-60
2024/02/27 09:24:38;;;;;;;14.65;6.70;;;;;;;;;;5054532;28;20025;-59
2024/02/27 09:27:04;;;;;;;12.13;7.25;;;;;;;;;;5053321;28;20052;-58
2024/02/27 09:29:29;;;;;;;8.73;5.25;;;;;;;;;;5053520;28;20033;-60
2024/02/27 09:31:54;;;;;;;10.18;6.50;;;;;;;;;;5051934;28;20048;-59
2024/02/27 09:34:20;;;;;;;9.87;6.10;;;;;;;;;;5054528;28;20033;-58
2024/02/27 09:36:46;;;;;;;16.30;8.48;;;;;;;;;;5052146;28;20112;-59
2024/02/27 09:39:11;;;;;;;13.30;7.68;;;;;;;;;;5053423;28;20040;-61
2024/02/27 09:41:36;;;;;;;17.10;7.57;;;;;;;;;;5053481;28;20075;-60
2024/02/27 09:44:02;;;;;;;15.20;8.68;;;;;;;;;;5053518;28;20033;-58
2024/02/27 09:46:28;;;;;;;12.63;7.22;;;;;;;;;;5052826;28;20053;-57
2024/02/27 09:48:54;;;;;;;;;;;;;;;;;;5052908;28;20022;-59
2024/02/27 09:51:20;;;;;;;17.60;8.77;;;;;;;;;;5067552;28;19995;-58
2024/02/27 09:53:45;;;;;;;;;;;;;;;;;;5051670;28;20040;-59
2024/02/27 09:56:15;;;;;;;12.30;6.47;;;;;;;;;;5053580;28;19932;-58
2024/02/27 09:58:43;;;;;;;13.80;8.03;;;;;;;;;;5055203;28;20033;-62
2024/02/27 10:01:11;;;;;;;14.87;7.57;;;;;;;;;;5053041;28;20169;-58
2024/02/27 10:03:40;;;;;;;16.57;7.97;;;;;;;;;;5053096;28;20033;-59
2024/02/27 10:06:06;;;;;;;13.77;8.30;;;;;;;;;;5053180;28;20052;-59
2024/02/27 10:08:32;;;;;;;12.17;6.37;;;;;;;;;;5053255;28;20036;-59
2024/02/27 10:10:58;;;;;;;15.67;8.70;;;;;;;;;;5053459;28;20045;-58
2024/02/27 10:13:23;;;;;;;15.70;7.50;;;;;;;;;;5052211;28;20041;-59
2024/02/27 10:15:49;;;;;;;10.45;6.20;;;;;;;;;;5053553;28;20087;-60
2024/02/27 10:18:15;;;;;;;13.90;7.03;;;;;;;;;;5053039;28;20030;-60
2024/02/27 10:20:43;;;;;;;10.73;6.47;;;;;;;;;;5052976;28;20025;-61
2024/02/27 10:23:09;;;;;;;11.40;6.20;;;;;;;;;;5052941;28;20055;-62
2024/02/27 10:25:34;;;;;;;;;;;;;;;;;;5052188;28;20044;-60
2024/02/27 10:28:01;;;;;;;9.50;5.13;;;;;;;;;;5053195;28;19943;-60
2024/02/27 10:30:27;;;;;;;11.05;5.75;;;;;;;;;;5053168;28;20096;-61
2024/02/27 10:32:53;;;;;;;15.32;7.38;;;;;;;;;;5052375;28;20029;-61
2024/02/27 10:35:19;;;;;;;;;;;;;;;;;;5052637;28;20056;-60
2024/02/27 10:37:45;;;;;;;10.50;6.60;;;;;;;;;;5053398;28;19989;-59
2024/02/27 10:40:11;;;;;;;;;;;;;;;;;;5053420;28;20035;-61
2024/02/27 10:42:40;;;;;;;12.38;7.25;;;;;;;;;;5051822;28;19935;-61
2024/02/27 10:45:05;;;;;;;13.00;7.28;;;;;;;;;;5051166;28;20353;-59
2024/02/27 10:47:32;;;;;;;10.20;6.88;;;;;;;;;;5050719;28;20064;-60
2024/02/27 10:49:58;;;;;;;15.27;7.65;;;;;;;;;;5050029;28;20031;-60
2024/02/27 10:52:25;;;;;;;;;;;;;;;;;;5049801;28;20026;-60
2024/02/27 10:54:51;;;;;;;14.55;7.13;;;;;;;;;;5049648;28;19913;-60
2024/02/27 10:57:16;;;;;;;12.13;7.70;;;;;;;;;;5051286;28;20026;-59
2024/02/27 10:59:43;;;;;;;11.02;7.63;;;;;;;;;;5050539;28;20030;-59
2024/02/27 11:02:14;;;;;;;12.82;7.60;;;;;;;;;;5051374;28;20025;-59
2024/02/27 11:04:40;;;;;;;12.13;7.35;;;;;;;;;;5050098;28;20025;-64
2024/02/27 11:07:05;;;;;;;15.65;7.88;;;;;;;;;;5050240;28;20033;-59
2024/02/27 11:09:32;;;;;;;9.82;6.63;;;;;;;;;;5049645;28;20040;-60
2024/02/27 11:12:06;;;;;;;12.63;7.30;;;;;;;;;;5053766;28;20033;-60
2024/02/27 11:14:38;;;;;;;13.32;7.43;;;;;;;;;;5050542;28;20097;-60
2024/02/27 11:17:22;;;;;;;12.25;7.47;;;;;;;;;;5052188;28;20033;-60
2024/02/27 11:19:51;;;;;;;11.82;7.00;;;;;;;;;;5049730;28;20030;-63
2024/02/27 11:22:18;;;;;;;10.90;7.57;;;;;;;;;;5048824;28;20036;-59
2024/02/27 11:24:44;;;;;;;10.68;7.50;;;;;;;;;;5048720;28;20061;-60
2024/02/27 11:27:09;;;;;;;15.20;7.00;;;;;;;;;;5049791;28;21539;-59
2024/02/27 11:29:35;;;;;;;10.48;7.03;;;;;;;;;;5050285;28;20029;-59
2024/02/27 11:32:01;;;;;;;10.32;6.50;;;;;;;;;;5051240;28;20037;-60
2024/02/27 11:34:30;;;;;;;10.13;7.25;;;;;;;;;;5050032;28;20029;-63
2024/02/27 11:37:15;;;;;;;10.65;7.30;;;;;;;;;;5051227;28;20036;-60
2024/02/27 11:39:41;;;;;;;9.95;6.80;;;;;;;;;;5050782;28;20022;-60
2024/02/27 11:42:08;;;;;;;11.35;7.22;;;;;;;;;;5051700;28;20029;-60
2024/02/27 11:44:53;;;;;;;12.48;6.85;;;;;;;;;;5052143;28;20030;-59
2024/02/27 11:47:32;;;;;;;13.43;8.70;;;;;;;;;;5053229;28;20067;-59
2024/02/27 11:49:57;;;;;;;10.77;7.43;;;;;;;;;;5067404;28;20034;-61
2024/02/27 11:52:23;;;;;;;10.43;6.82;;;;;;;;;;5053352;28;20081;-60
2024/02/27 11:54:49;;;;;;;10.13;7.25;;;;;;;;;;5050942;28;20036;-60
2024/02/27 11:57:15;;;;;;;11.60;7.22;;;;;;;;;;5053078;28;20030;-59
2024/02/27 11:59:40;;;;;;;11.73;6.75;;;;;;;;;;5051502;28;20093;-59
2024/02/27 12:02:06;;;;;;;9.98;6.35;;;;;;;;;;5053014;28;20025;-60
2024/02/27 12:04:32;;;;;;;10.82;7.28;;;;;;;;;;5052101;28;20081;-62
2024/02/27 12:06:57;;;;;;;9.75;7.32;;;;;;;;;;5050147;28;20026;-60
2024/02/27 12:09:27;;;;;;;12.32;6.75;;;;;;;;;;5052112;28;20085;-60
2024/02/27 12:11:53;;;;;;;9.77;6.22;;;;;;;;;;5047888;28;20025;-60
2024/02/27 12:14:19;;;;;;;11.07;7.18;;;;;;;;;;5050674;28;20038;-60
2024/02/27 12:16:45;;;;;;;10.55;7.15;;;;;;;;;;5049766;28;20112;-60
2024/02/27 12:19:10;;;;;;;9.70;6.50;;;;;;;;;;5050998;28;20029;-60
2024/02/27 12:21:36;;;;;;;10.10;6.82;;;;;;;;;;5048511;28;20026;-60
2024/02/27 12:24:08;;;;;;;12.30;6.15;;;;;;;;;;5050102;28;20076;-59
2024/02/27 12:26:33;;;;;;;11.73;7.90;;;;;;;;;;5050508;28;20029;-59
2024/02/27 12:28:59;;;;;;;13.23;7.13;;;;;;;;;;5049016;28;20048;-60
2024/02/27 12:31:25;;;;;;;10.40;7.10;;;;;;;;;;5049962;28;20037;-59
2024/02/27 12:33:52;;;;;;;13.05;7.53;;;;;;;;;;5047694;28;20041;-59
2024/02/27 12:36:21;;;;;;;11.02;7.10;;;;;;;;;;5053185;28;20029;-59
2024/02/27 12:38:50;;;;;;;12.38;7.32;;;;;;;;;;5051081;28;20036;-60
2024/02/27 12:41:15;;;;;;;9.63;6.50;;;;;;;;;;5051557;28;20031;-61
2024/02/27 12:43:41;;;;;;;12.13;7.13;;;;;;;;;;5048167;28;20026;-58
2024/02/27 12:46:06;;;;;;;11.35;6.60;;;;;;;;;;5053170;28;20033;-60
2024/02/27 12:48:33;;;;;;;12.48;7.00;;;;;;;;;;5058930;28;20089;-61
2024/02/27 12:51:00;;;;;;;10.45;7.03;;;;;;;;;;5058218;28;20052;-60
2024/02/27 12:53:26;;;;;;;9.38;7.05;;;;;;;;;;5058707;28;20044;-60
2024/02/27 12:55:51;;;;;;;12.38;7.30;;;;;;;;;;5055935;28;20048;-59
2024/02/27 12:58:23;;;;;;;10.88;7.28;;;;;;;;;;5053763;28;20081;-59
2024/02/27 13:00:49;;;;;;;13.35;7.18;;;;;;;;;;5053940;28;20021;-60
2024/02/27 13:03:14;;;;;;;17.80;7.28;;;;;;;;;;5055152;28;20033;-59
2024/02/27 13:05:42;;;;;;;15.63;7.70;;;;;;;;;;5051946;28;20048;-59
2024/02/27 13:08:08;;;;;;;9.57;7.30;;;;;;;;;;5051769;28;20036;-61
2024/02/27 13:10:34;;;;;;;9.93;6.20;;;;;;;;;;5052947;28;20040;-60
2024/02/27 13:13:13;;;;;;;10.98;6.95;;;;;;;;;;5053433;28;20041;-59
2024/02/27 13:15:43;;;;;;;10.20;7.40;;;;;;;;;;5052546;28;20033;-60
2024/02/27 13:18:08;;;;;;;8.52;6.00;;;;;;;;;;5054575;28;20029;-61
2024/02/27 13:20:33;;;;;;;11.13;7.15;;;;;;;;;;5054670;28;20065;-60
2024/02/27 13:22:59;;;;;;;10.82;6.72;;;;;;;;;;5054852;28;20089;-61
2024/02/27 13:25:25;;;;;;;11.50;7.07;;;;;;;;;;5053997;28;20030;-60
2024/02/27 13:27:51;;;;;;;15.80;7.50;;;;;;;;;;5055870;28;20090;-61
2024/02/27 13:30:16;;;;;;;8.63;6.57;;;;;;;;;;5057508;28;20041;-60
2024/02/27 13:32:42;;;;;;;14.10;7.85;;;;;;;;;;5055839;28;20033;-61
2024/02/27 13:35:07;;;;;;;9.02;6.45;;;;;;;;;;5053706;28;20057;-60
2024/02/27 13:37:33;;;;;;;11.15;6.95;;;;;;;;;;5054050;28;20048;-59
2024/02/27 13:39:58;;;;;;;11.52;6.63;;;;;;;;;;5055128;28;20135;-60
2024/02/27 13:42:24;;;;;;;10.27;6.70;;;;;;;;;;5054658;28;20032;-61
2024/02/27 13:44:50;;;;;;;11.35;7.15;;;;;;;;;;5053201;28;20110;-60
2024/02/27 13:47:16;;;;;;;13.90;7.90;;;;;;;;;;5052698;28;20029;-59
2024/02/27 13:49:41;;;;;;;24.63;7.30;;;;;;;;;;5053335;28;20065;-59
2024/02/27 13:52:07;;;;;;;16.50;6.90;;;;;;;;;;5052617;28;20029;-60
2024/02/27 13:54:32;;;;;;;8.82;6.38;;;;;;;;;;5050777;28;20033;-59
2024/02/27 13:56:58;;;;;;;11.90;6.47;;;;;;;;;;5051912;28;20124;-60
2024/02/27 13:59:23;;;;;;;11.15;6.88;;;;;;;;;;5053540;28;20022;-60
2024/02/27 14:01:49;;;;;;;12.15;7.63;;;;;;;;;;5051977;28;20028;-60
2024/02/27 14:04:15;;;;;;;11.80;6.97;;;;;;;;;;5051745;28;20033;-60
2024/02/27 14:06:41;;;;;;;13.63;7.40;;;;;;;;;;5052981;28;20109;-59
2024/02/27 14:09:07;;;;;;;11.45;7.03;;;;;;;;;;5052291;28;20021;-59
2024/02/27 14:11:32;;;;;;;7.25;5.70;;;;;;;;;;5051701;28;20021;-59
2024/02/27 14:13:58;;;;;;;11.68;7.10;;;;;;;;;;5052787;28;20029;-59
2024/02/27 14:16:24;;;;;;;9.50;7.00;;;;;;;;;;5053474;28;20044;-59
2024/02/27 14:18:49;;;;;;;9.15;6.53;;;;;;;;;;5052891;28;20033;-59
2024/02/27 14:21:15;;;;;;;10.55;6.50;;;;;;;;;;5053294;28;20389;-60